sensor_id;sensor_type;location;lat;lon;timestamp;P1;durP1;ratioP1;P2;durP2;ratioP2
61899;SDS011;47853;55.890;37.664;2023-04-23T00:00:05;33.03;;;13.15;;
61899;SDS011;47853;55.890;37.664;2023-04-23T00:02:31;24.83;;;12.38;;
61899;SDS011;47853;55.890;37.664;2023-04-23T00:04:57;39.20;;;13.13;;
61899;SDS011;47853;55.890;37.664;2023-04-23T00:07:26;33.38;;;12.35;;
61899;SDS011;47853;55.890;37.664;2023-04-23T00:09:51;39.40;;;13.97;;
61899;SDS011;47853;55.890;37.664;2023-04-23T00:12:16;28.02;;;12.07;;
61899;SDS011;47853;55.890;37.664;2023-04-23T00:14:42;35.03;;;12.43;;
61899;SDS011;47853;55.890;37.664;2023-04-23T00:17:07;34.53;;;13.15;;
61899;SDS011;47853;55.890;37.664;2023-04-23T00:19:32;37.70;;;13.20;;
61899;SDS011;47853;55.890;37.664;2023-04-23T00:21:57;35.53;;;13.77;;
61899;SDS011;47853;55.890;37.664;2023-04-23T00:24:22;30.00;;;12.53;;
61899;SDS011;47853;55.890;37.664;2023-04-23T00:26:48;33.20;;;12.90;;
61899;SDS011;47853;55.890;37.664;2023-04-23T00:29:13;37.20;;;14.20;;
61899;SDS011;47853;55.890;37.664;2023-04-23T00:31:38;38.47;;;14.20;;
61899;SDS011;47853;55.890;37.664;2023-04-23T00:34:03;40.33;;;13.83;;
61899;SDS011;47853;55.890;37.664;2023-04-23T00:36:28;36.23;;;14.20;;
61899;SDS011;47853;55.890;37.664;2023-04-23T00:38:53;37.17;;;14.98;;
61899;SDS011;47853;55.890;37.664;2023-04-23T00:41:19;35.67;;;14.70;;
61899;SDS011;47853;55.890;37.664;2023-04-23T00:43:44;31.52;;;14.32;;
61899;SDS011;47853;55.890;37.664;2023-04-23T00:46:10;42.97;;;13.85;;
61899;SDS011;47853;55.890;37.664;2023-04-23T00:48:35;39.15;;;13.93;;
61899;SDS011;47853;55.890;37.664;2023-04-23T00:51:04;32.95;;;13.38;;
61899;SDS011;47853;55.890;37.664;2023-04-23T00:53:29;28.65;;;13.73;;
61899;SDS011;47853;55.890;37.664;2023-04-23T00:55:54;30.40;;;13.03;;
61899;SDS011;47853;55.890;37.664;2023-04-23T00:58:20;34.22;;;13.18;;
61899;SDS011;47853;55.890;37.664;2023-04-23T01:00:45;38.80;;;14.10;;
61899;SDS011;47853;55.890;37.664;2023-04-23T01:03:10;45.38;;;13.90;;
61899;SDS011;47853;55.890;37.664;2023-04-23T01:05:36;34.83;;;12.53;;
61899;SDS011;47853;55.890;37.664;2023-04-23T01:08:01;30.45;;;13.75;;
61899;SDS011;47853;55.890;37.664;2023-04-23T01:10:26;32.80;;;12.60;;
61899;SDS011;47853;55.890;37.664;2023-04-23T01:12:51;33.58;;;14.65;;
61899;SDS011;47853;55.890;37.664;2023-04-23T01:15:17;36.72;;;13.02;;
61899;SDS011;47853;55.890;37.664;2023-04-23T01:17:42;44.72;;;14.45;;
61899;SDS011;47853;55.890;37.664;2023-04-23T01:20:07;31.90;;;13.60;;
61899;SDS011;47853;55.890;37.664;2023-04-23T01:22:35;33.55;;;14.45;;
61899;SDS011;47853;55.890;37.664;2023-04-23T01:25:00;41.85;;;13.75;;
61899;SDS011;47853;55.890;37.664;2023-04-23T01:27:25;33.33;;;14.85;;
61899;SDS011;47853;55.890;37.664;2023-04-23T01:29:51;35.05;;;14.43;;
61899;SDS011;47853;55.890;37.664;2023-04-23T01:32:16;32.10;;;13.93;;
61899;SDS011;47853;55.890;37.664;2023-04-23T01:34:42;27.40;;;13.38;;
61899;SDS011;47853;55.890;37.664;2023-04-23T01:37:08;35.08;;;14.48;;
61899;SDS011;47853;55.890;37.664;2023-04-23T01:39:33;38.13;;;14.00;;
61899;SDS011;47853;55.890;37.664;2023-04-23T01:41:58;38.75;;;15.10;;
61899;SDS011;47853;55.890;37.664;2023-04-23T01:44:23;49.20;;;15.65;;
61899;SDS011;47853;55.890;37.664;2023-04-23T01:46:48;37.53;;;14.03;;
61899;SDS011;47853;55.890;37.664;2023-04-23T01:49:14;32.63;;;13.43;;
61899;SDS011;47853;55.890;37.664;2023-04-23T01:51:39;36.70;;;15.43;;
61899;SDS011;47853;55.890;37.664;2023-04-23T01:54:04;41.90;;;15.30;;
61899;SDS011;47853;55.890;37.664;2023-04-23T01:56:29;40.67;;;14.77;;
61899;SDS011;47853;55.890;37.664;2023-04-23T01:58:55;45.03;;;15.37;;
61899;SDS011;47853;55.890;37.664;2023-04-23T02:01:20;51.17;;;15.88;;
61899;SDS011;47853;55.890;37.664;2023-04-23T02:03:45;35.83;;;14.13;;
61899;SDS011;47853;55.890;37.664;2023-04-23T02:06:11;28.55;;;13.00;;
61899;SDS011;47853;55.890;37.664;2023-04-23T02:08:37;48.17;;;15.00;;
61899;SDS011;47853;55.890;37.664;2023-04-23T02:11:02;37.55;;;14.57;;
61899;SDS011;47853;55.890;37.664;2023-04-23T02:13:27;35.50;;;15.30;;
61899;SDS011;47853;55.890;37.664;2023-04-23T02:15:52;33.40;;;15.07;;
61899;SDS011;47853;55.890;37.664;2023-04-23T02:18:17;32.88;;;13.55;;
61899;SDS011;47853;55.890;37.664;2023-04-23T02:20:43;39.70;;;14.40;;
61899;SDS011;47853;55.890;37.664;2023-04-23T02:23:08;38.35;;;14.45;;
61899;SDS011;47853;55.890;37.664;2023-04-23T02:25:33;39.20;;;14.57;;
61899;SDS011;47853;55.890;37.664;2023-04-23T02:27:58;40.22;;;15.27;;
61899;SDS011;47853;55.890;37.664;2023-04-23T02:30:24;27.08;;;14.18;;
61899;SDS011;47853;55.890;37.664;2023-04-23T02:32:49;32.65;;;12.95;;
61899;SDS011;47853;55.890;37.664;2023-04-23T02:35:14;37.20;;;12.67;;
61899;SDS011;47853;55.890;37.664;2023-04-23T02:37:39;31.07;;;13.47;;
61899;SDS011;47853;55.890;37.664;2023-04-23T02:40:04;28.20;;;12.60;;
61899;SDS011;47853;55.890;37.664;2023-04-23T02:42:30;33.00;;;13.13;;
61899;SDS011;47853;55.890;37.664;2023-04-23T02:44:55;32.47;;;13.60;;
61899;SDS011;47853;55.890;37.664;2023-04-23T02:47:20;28.40;;;12.67;;
61899;SDS011;47853;55.890;37.664;2023-04-23T02:49:45;27.93;;;13.07;;
61899;SDS011;47853;55.890;37.664;2023-04-23T02:52:10;35.17;;;13.83;;
61899;SDS011;47853;55.890;37.664;2023-04-23T02:54:38;32.17;;;13.37;;
61899;SDS011;47853;55.890;37.664;2023-04-23T02:57:04;29.38;;;12.95;;
61899;SDS011;47853;55.890;37.664;2023-04-23T02:59:29;23.65;;;11.95;;
61899;SDS011;47853;55.890;37.664;2023-04-23T03:01:54;25.65;;;11.95;;
61899;SDS011;47853;55.890;37.664;2023-04-23T03:04:20;24.57;;;13.07;;
61899;SDS011;47853;55.890;37.664;2023-04-23T03:06:45;27.50;;;12.40;;
61899;SDS011;47853;55.890;37.664;2023-04-23T03:09:10;27.17;;;12.15;;
61899;SDS011;47853;55.890;37.664;2023-04-23T03:11:35;33.23;;;11.63;;
61899;SDS011;47853;55.890;37.664;2023-04-23T03:14:00;33.50;;;13.93;;
61899;SDS011;47853;55.890;37.664;2023-04-23T03:16:26;27.55;;;13.10;;
61899;SDS011;47853;55.890;37.664;2023-04-23T03:18:51;29.35;;;13.23;;
61899;SDS011;47853;55.890;37.664;2023-04-23T03:21:16;31.77;;;13.20;;
61899;SDS011;47853;55.890;37.664;2023-04-23T03:23:42;37.88;;;13.18;;
61899;SDS011;47853;55.890;37.664;2023-04-23T03:26:07;29.10;;;12.50;;
61899;SDS011;47853;55.890;37.664;2023-04-23T03:28:32;24.70;;;12.63;;
61899;SDS011;47853;55.890;37.664;2023-04-23T03:30:57;30.10;;;12.60;;
61899;SDS011;47853;55.890;37.664;2023-04-23T03:33:22;30.70;;;12.67;;
61899;SDS011;47853;55.890;37.664;2023-04-23T03:35:47;33.93;;;13.13;;
61899;SDS011;47853;55.890;37.664;2023-04-23T03:38:13;32.27;;;12.93;;
61899;SDS011;47853;55.890;37.664;2023-04-23T03:40:38;27.37;;;11.17;;
61899;SDS011;47853;55.890;37.664;2023-04-23T03:43:03;24.83;;;10.40;;
61899;SDS011;47853;55.890;37.664;2023-04-23T03:45:29;24.23;;;11.37;;
61899;SDS011;47853;55.890;37.664;2023-04-23T03:47:54;28.30;;;12.15;;
61899;SDS011;47853;55.890;37.664;2023-04-23T03:50:19;22.93;;;11.33;;
61899;SDS011;47853;55.890;37.664;2023-04-23T03:52:44;32.53;;;11.90;;
61899;SDS011;47853;55.890;37.664;2023-04-23T03:55:09;26.73;;;10.57;;
61899;SDS011;47853;55.890;37.664;2023-04-23T03:57:35;27.70;;;9.80;;
61899;SDS011;47853;55.890;37.664;2023-04-23T04:00:00;26.75;;;10.43;;
61899;SDS011;47853;55.890;37.664;2023-04-23T04:02:25;26.75;;;10.40;;
61899;SDS011;47853;55.890;37.664;2023-04-23T04:04:50;21.53;;;10.13;;
61899;SDS011;47853;55.890;37.664;2023-04-23T04:07:16;17.57;;;10.27;;
61899;SDS011;47853;55.890;37.664;2023-04-23T04:09:42;23.27;;;10.43;;
61899;SDS011;47853;55.890;37.664;2023-04-23T04:12:07;22.17;;;9.90;;
61899;SDS011;47853;55.890;37.664;2023-04-23T04:14:32;24.77;;;10.13;;
61899;SDS011;47853;55.890;37.664;2023-04-23T04:16:57;22.42;;;9.70;;
61899;SDS011;47853;55.890;37.664;2023-04-23T04:19:23;25.48;;;10.05;;
61899;SDS011;47853;55.890;37.664;2023-04-23T04:21:48;19.20;;;9.15;;
61899;SDS011;47853;55.890;37.664;2023-04-23T04:24:13;16.05;;;9.05;;
61899;SDS011;47853;55.890;37.664;2023-04-23T04:26:39;17.63;;;8.40;;
61899;SDS011;47853;55.890;37.664;2023-04-23T04:29:04;19.73;;;10.05;;
61899;SDS011;47853;55.890;37.664;2023-04-23T04:31:29;20.27;;;9.20;;
61899;SDS011;47853;55.890;37.664;2023-04-23T04:33:54;18.80;;;9.30;;
61899;SDS011;47853;55.890;37.664;2023-04-23T04:36:20;19.87;;;9.37;;
61899;SDS011;47853;55.890;37.664;2023-04-23T04:38:45;16.85;;;9.05;;
61899;SDS011;47853;55.890;37.664;2023-04-23T04:41:10;18.63;;;8.43;;
61899;SDS011;47853;55.890;37.664;2023-04-23T04:43:35;20.63;;;8.90;;
61899;SDS011;47853;55.890;37.664;2023-04-23T04:46:01;19.63;;;8.77;;
61899;SDS011;47853;55.890;37.664;2023-04-23T04:48:26;17.63;;;8.63;;
61899;SDS011;47853;55.890;37.664;2023-04-23T04:50:51;15.17;;;8.23;;
61899;SDS011;47853;55.890;37.664;2023-04-23T04:53:16;13.57;;;7.63;;
61899;SDS011;47853;55.890;37.664;2023-04-23T04:55:42;18.47;;;8.90;;
61899;SDS011;47853;55.890;37.664;2023-04-23T04:58:07;21.67;;;8.30;;
61899;SDS011;47853;55.890;37.664;2023-04-23T05:00:32;19.47;;;8.00;;
61899;SDS011;47853;55.890;37.664;2023-04-23T05:02:57;17.02;;;8.10;;
61899;SDS011;47853;55.890;37.664;2023-04-23T05:05:23;15.70;;;7.90;;
61899;SDS011;47853;55.890;37.664;2023-04-23T05:07:48;31.08;;;8.75;;
61899;SDS011;47853;55.890;37.664;2023-04-23T05:10:14;23.23;;;8.40;;
61899;SDS011;47853;55.890;37.664;2023-04-23T05:12:39;16.10;;;8.45;;
61899;SDS011;47853;55.890;37.664;2023-04-23T05:15:04;17.83;;;7.53;;
61899;SDS011;47853;55.890;37.664;2023-04-23T05:17:30;16.70;;;7.90;;
61899;SDS011;47853;55.890;37.664;2023-04-23T05:19:55;17.67;;;6.97;;
61899;SDS011;47853;55.890;37.664;2023-04-23T05:22:20;16.60;;;7.70;;
61899;SDS011;47853;55.890;37.664;2023-04-23T05:24:46;21.38;;;7.63;;
61899;SDS011;47853;55.890;37.664;2023-04-23T05:27:11;11.43;;;7.50;;
61899;SDS011;47853;55.890;37.664;2023-04-23T05:29:36;13.17;;;6.80;;
61899;SDS011;47853;55.890;37.664;2023-04-23T05:32:01;16.20;;;7.43;;
61899;SDS011;47853;55.890;37.664;2023-04-23T05:34:26;17.23;;;6.90;;
61899;SDS011;47853;55.890;37.664;2023-04-23T05:36:51;14.00;;;7.43;;
61899;SDS011;47853;55.890;37.664;2023-04-23T05:39:16;16.37;;;7.40;;
61899;SDS011;47853;55.890;37.664;2023-04-23T05:41:42;10.90;;;7.10;;
61899;SDS011;47853;55.890;37.664;2023-04-23T05:44:07;25.83;;;8.60;;
61899;SDS011;47853;55.890;37.664;2023-04-23T05:46:32;19.10;;;7.73;;
61899;SDS011;47853;55.890;37.664;2023-04-23T05:48:57;17.20;;;7.83;;
61899;SDS011;47853;55.890;37.664;2023-04-23T05:51:22;15.63;;;7.90;;
61899;SDS011;47853;55.890;37.664;2023-04-23T05:53:47;19.77;;;9.13;;
61899;SDS011;47853;55.890;37.664;2023-04-23T05:56:13;16.40;;;7.90;;
61899;SDS011;47853;55.890;37.664;2023-04-23T05:58:38;22.63;;;8.87;;
61899;SDS011;47853;55.890;37.664;2023-04-23T06:01:03;13.57;;;7.27;;
61899;SDS011;47853;55.890;37.664;2023-04-23T06:03:28;15.07;;;7.15;;
61899;SDS011;47853;55.890;37.664;2023-04-23T06:05:54;18.83;;;7.45;;
61899;SDS011;47853;55.890;37.664;2023-04-23T06:08:19;18.93;;;7.93;;
61899;SDS011;47853;55.890;37.664;2023-04-23T06:10:45;22.83;;;7.90;;
61899;SDS011;47853;55.890;37.664;2023-04-23T06:13:10;15.45;;;7.97;;
61899;SDS011;47853;55.890;37.664;2023-04-23T06:15:35;44.25;;;27.60;;
61899;SDS011;47853;55.890;37.664;2023-04-23T06:18:00;12.00;;;6.50;;
61899;SDS011;47853;55.890;37.664;2023-04-23T06:20:25;22.40;;;8.80;;
61899;SDS011;47853;55.890;37.664;2023-04-23T06:22:51;17.87;;;7.13;;
61899;SDS011;47853;55.890;37.664;2023-04-23T06:25:16;19.73;;;7.27;;
61899;SDS011;47853;55.890;37.664;2023-04-23T06:27:41;15.88;;;6.45;;
61899;SDS011;47853;55.890;37.664;2023-04-23T06:30:06;14.20;;;6.93;;
61899;SDS011;47853;55.890;37.664;2023-04-23T06:32:32;10.40;;;7.13;;
61899;SDS011;47853;55.890;37.664;2023-04-23T06:34:57;15.63;;;8.57;;
61899;SDS011;47853;55.890;37.664;2023-04-23T06:37:22;13.77;;;9.40;;
61899;SDS011;47853;55.890;37.664;2023-04-23T06:39:47;14.93;;;12.00;;
61899;SDS011;47853;55.890;37.664;2023-04-23T06:42:12;21.33;;;9.63;;
61899;SDS011;47853;55.890;37.664;2023-04-23T06:44:37;13.63;;;8.60;;
61899;SDS011;47853;55.890;37.664;2023-04-23T06:47:03;21.60;;;12.13;;
61899;SDS011;47853;55.890;37.664;2023-04-23T06:49:28;16.07;;;10.57;;
61899;SDS011;47853;55.890;37.664;2023-04-23T06:51:53;17.90;;;11.77;;
61899;SDS011;47853;55.890;37.664;2023-04-23T06:54:18;16.50;;;9.70;;
61899;SDS011;47853;55.890;37.664;2023-04-23T06:56:43;15.53;;;9.53;;
61899;SDS011;47853;55.890;37.664;2023-04-23T06:59:08;24.13;;;12.27;;
61899;SDS011;47853;55.890;37.664;2023-04-23T07:01:34;21.87;;;12.63;;
61899;SDS011;47853;55.890;37.664;2023-04-23T07:03:59;18.40;;;13.97;;
61899;SDS011;47853;55.890;37.664;2023-04-23T07:06:24;19.70;;;15.03;;
61899;SDS011;47853;55.890;37.664;2023-04-23T07:08:49;52.00;;;41.93;;
61899;SDS011;47853;55.890;37.664;2023-04-23T07:11:14;27.10;;;14.93;;
61899;SDS011;47853;55.890;37.664;2023-04-23T07:13:39;17.03;;;11.17;;
61899;SDS011;47853;55.890;37.664;2023-04-23T07:16:05;20.47;;;13.50;;
61899;SDS011;47853;55.890;37.664;2023-04-23T07:18:30;24.57;;;12.57;;
61899;SDS011;47853;55.890;37.664;2023-04-23T07:20:56;13.77;;;10.52;;
61899;SDS011;47853;55.890;37.664;2023-04-23T07:23:21;17.60;;;9.87;;
61899;SDS011;47853;55.890;37.664;2023-04-23T07:25:46;15.70;;;9.47;;
61899;SDS011;47853;55.890;37.664;2023-04-23T07:28:11;19.08;;;8.75;;
61899;SDS011;47853;55.890;37.664;2023-04-23T07:30:37;11.03;;;7.80;;
61899;SDS011;47853;55.890;37.664;2023-04-23T07:33:02;13.50;;;7.00;;
61899;SDS011;47853;55.890;37.664;2023-04-23T07:35:27;14.53;;;5.83;;
61899;SDS011;47853;55.890;37.664;2023-04-23T07:37:52;5.77;;;2.70;;
61899;SDS011;47853;55.890;37.664;2023-04-23T07:40:21;7.28;;;3.90;;
61899;SDS011;47853;55.890;37.664;2023-04-23T07:42:46;6.55;;;3.72;;
61899;SDS011;47853;55.890;37.664;2023-04-23T07:45:11;7.15;;;3.63;;
61899;SDS011;47853;55.890;37.664;2023-04-23T07:47:36;6.57;;;4.90;;
61899;SDS011;47853;55.890;37.664;2023-04-23T07:50:01;13.10;;;5.70;;
61899;SDS011;47853;55.890;37.664;2023-04-23T07:52:27;8.83;;;6.33;;
61899;SDS011;47853;55.890;37.664;2023-04-23T07:54:52;8.77;;;6.17;;
61899;SDS011;47853;55.890;37.664;2023-04-23T07:57:17;5.43;;;2.67;;
61899;SDS011;47853;55.890;37.664;2023-04-23T07:59:42;27.33;;;22.80;;
61899;SDS011;47853;55.890;37.664;2023-04-23T08:02:07;4.97;;;2.73;;
61899;SDS011;47853;55.890;37.664;2023-04-23T08:04:32;7.90;;;4.03;;
61899;SDS011;47853;55.890;37.664;2023-04-23T08:06:58;9.10;;;4.67;;
61899;SDS011;47853;55.890;37.664;2023-04-23T08:09:23;6.33;;;3.00;;
61899;SDS011;47853;55.890;37.664;2023-04-23T08:11:48;7.60;;;3.38;;
61899;SDS011;47853;55.890;37.664;2023-04-23T08:14:13;6.77;;;2.27;;
61899;SDS011;47853;55.890;37.664;2023-04-23T08:16:39;8.87;;;1.70;;
61899;SDS011;47853;55.890;37.664;2023-04-23T08:19:04;5.70;;;1.97;;
61899;SDS011;47853;55.890;37.664;2023-04-23T08:21:30;2.70;;;2.00;;
61899;SDS011;47853;55.890;37.664;2023-04-23T08:23:55;4.80;;;1.80;;
61899;SDS011;47853;55.890;37.664;2023-04-23T08:26:20;5.23;;;1.90;;
61899;SDS011;47853;55.890;37.664;2023-04-23T08:28:45;4.30;;;1.63;;
61899;SDS011;47853;55.890;37.664;2023-04-23T08:31:10;3.83;;;1.10;;
61899;SDS011;47853;55.890;37.664;2023-04-23T08:33:36;3.40;;;1.80;;
61899;SDS011;47853;55.890;37.664;2023-04-23T08:36:01;6.27;;;2.10;;
61899;SDS011;47853;55.890;37.664;2023-04-23T08:38:26;5.17;;;1.70;;
61899;SDS011;47853;55.890;37.664;2023-04-23T08:40:53;2.10;;;1.50;;
61899;SDS011;47853;55.890;37.664;2023-04-23T08:43:20;3.67;;;1.45;;
61899;SDS011;47853;55.890;37.664;2023-04-23T08:45:48;5.22;;;1.08;;
61899;SDS011;47853;55.890;37.664;2023-04-23T08:48:14;4.33;;;1.03;;
61899;SDS011;47853;55.890;37.664;2023-04-23T08:50:42;6.50;;;1.63;;
61899;SDS011;47853;55.890;37.664;2023-04-23T08:53:07;3.42;;;1.10;;
61899;SDS011;47853;55.890;37.664;2023-04-23T08:55:32;9.98;;;8.98;;
61899;SDS011;47853;55.890;37.664;2023-04-23T08:58:02;4.50;;;1.10;;
61899;SDS011;47853;55.890;37.664;2023-04-23T09:00:28;3.40;;;1.08;;
61899;SDS011;47853;55.890;37.664;2023-04-23T09:02:53;6.45;;;1.15;;
61899;SDS011;47853;55.890;37.664;2023-04-23T09:05:18;3.33;;;1.00;;
61899;SDS011;47853;55.890;37.664;2023-04-23T09:07:43;11.87;;;10.40;;
61899;SDS011;47853;55.890;37.664;2023-04-23T09:10:09;2.47;;;1.10;;
61899;SDS011;47853;55.890;37.664;2023-04-23T09:12:35;2.92;;;1.33;;
61899;SDS011;47853;55.890;37.664;2023-04-23T09:15:01;4.25;;;1.52;;
61899;SDS011;47853;55.890;37.664;2023-04-23T09:17:29;3.65;;;1.50;;
61899;SDS011;47853;55.890;37.664;2023-04-23T09:19:55;7.22;;;1.65;;
61899;SDS011;47853;55.890;37.664;2023-04-23T09:22:42;7.80;;;1.65;;
61899;SDS011;47853;55.890;37.664;2023-04-23T09:25:06;3.03;;;1.33;;
61899;SDS011;47853;55.890;37.664;2023-04-23T09:27:32;4.95;;;1.45;;
61899;SDS011;47853;55.890;37.664;2023-04-23T09:29:58;2.07;;;1.20;;
61899;SDS011;47853;55.890;37.664;2023-04-23T09:32:30;2.67;;;1.30;;
61899;SDS011;47853;55.890;37.664;2023-04-23T09:34:56;5.60;;;1.90;;
61899;SDS011;47853;55.890;37.664;2023-04-23T09:37:24;3.10;;;1.40;;
61899;SDS011;47853;55.890;37.664;2023-04-23T09:39:49;2.72;;;1.80;;
61899;SDS011;47853;55.890;37.664;2023-04-23T09:42:14;4.63;;;1.67;;
61899;SDS011;47853;55.890;37.664;2023-04-23T09:44:39;4.07;;;1.80;;
61899;SDS011;47853;55.890;37.664;2023-04-23T09:47:05;5.00;;;2.00;;
61899;SDS011;47853;55.890;37.664;2023-04-23T09:49:30;2.10;;;1.40;;
61899;SDS011;47853;55.890;37.664;2023-04-23T09:51:55;4.73;;;1.43;;
61899;SDS011;47853;55.890;37.664;2023-04-23T09:54:29;2.78;;;1.75;;
61899;SDS011;47853;55.890;37.664;2023-04-23T09:56:54;8.03;;;2.07;;
61899;SDS011;47853;55.890;37.664;2023-04-23T09:59:24;7.17;;;1.60;;
61899;SDS011;47853;55.890;37.664;2023-04-23T10:01:49;3.83;;;1.42;;
61899;SDS011;47853;55.890;37.664;2023-04-23T10:04:16;4.80;;;2.30;;
61899;SDS011;47853;55.890;37.664;2023-04-23T10:06:42;4.30;;;2.13;;
61899;SDS011;47853;55.890;37.664;2023-04-23T10:09:07;6.00;;;1.38;;
61899;SDS011;47853;55.890;37.664;2023-04-23T10:11:32;5.87;;;1.60;;
61899;SDS011;47853;55.890;37.664;2023-04-23T10:13:58;4.30;;;1.52;;
61899;SDS011;47853;55.890;37.664;2023-04-23T10:16:23;2.67;;;1.58;;
61899;SDS011;47853;55.890;37.664;2023-04-23T10:18:49;3.30;;;1.63;;
61899;SDS011;47853;55.890;37.664;2023-04-23T10:21:15;3.42;;;1.30;;
61899;SDS011;47853;55.890;37.664;2023-04-23T10:23:41;2.92;;;1.38;;
61899;SDS011;47853;55.890;37.664;2023-04-23T10:26:08;6.22;;;2.35;;
61899;SDS011;47853;55.890;37.664;2023-04-23T10:28:33;4.45;;;1.60;;
61899;SDS011;47853;55.890;37.664;2023-04-23T10:30:59;4.78;;;1.80;;
61899;SDS011;47853;55.890;37.664;2023-04-23T10:33:25;5.85;;;1.48;;
61899;SDS011;47853;55.890;37.664;2023-04-23T10:35:53;5.00;;;1.42;;
61899;SDS011;47853;55.890;37.664;2023-04-23T10:38:18;2.00;;;1.63;;
61899;SDS011;47853;55.890;37.664;2023-04-23T10:40:45;3.05;;;1.50;;
61899;SDS011;47853;55.890;37.664;2023-04-23T10:43:10;4.53;;;2.00;;
61899;SDS011;47853;55.890;37.664;2023-04-23T10:45:36;5.20;;;1.75;;
61899;SDS011;47853;55.890;37.664;2023-04-23T10:48:01;8.93;;;1.53;;
61899;SDS011;47853;55.890;37.664;2023-04-23T10:50:27;2.93;;;1.47;;
61899;SDS011;47853;55.890;37.664;2023-04-23T10:52:52;2.05;;;1.65;;
61899;SDS011;47853;55.890;37.664;2023-04-23T10:55:21;7.00;;;1.77;;
61899;SDS011;47853;55.890;37.664;2023-04-23T10:57:58;3.47;;;1.80;;
61899;SDS011;47853;55.890;37.664;2023-04-23T11:00:24;4.18;;;1.52;;
61899;SDS011;47853;55.890;37.664;2023-04-23T11:02:49;4.43;;;1.98;;
61899;SDS011;47853;55.890;37.664;2023-04-23T11:05:14;2.95;;;1.55;;
61899;SDS011;47853;55.890;37.664;2023-04-23T11:07:39;4.87;;;1.80;;
61899;SDS011;47853;55.890;37.664;2023-04-23T11:10:11;2.47;;;1.50;;
61899;SDS011;47853;55.890;37.664;2023-04-23T11:12:37;4.65;;;1.58;;
61899;SDS011;47853;55.890;37.664;2023-04-23T11:15:09;2.53;;;1.70;;
61899;SDS011;47853;55.890;37.664;2023-04-23T11:22:41;7.30;;;1.60;;
61899;SDS011;47853;55.890;37.664;2023-04-23T11:25:07;7.70;;;1.85;;
61899;SDS011;47853;55.890;37.664;2023-04-23T11:27:33;3.90;;;1.67;;
61899;SDS011;47853;55.890;37.664;2023-04-23T11:29:59;3.30;;;1.60;;
61899;SDS011;47853;55.890;37.664;2023-04-23T11:32:24;4.90;;;1.50;;
61899;SDS011;47853;55.890;37.664;2023-04-23T11:34:51;5.38;;;1.48;;
61899;SDS011;47853;55.890;37.664;2023-04-23T11:37:17;6.38;;;1.70;;
61899;SDS011;47853;55.890;37.664;2023-04-23T11:39:43;5.95;;;1.60;;
61899;SDS011;47853;55.890;37.664;2023-04-23T11:42:09;6.47;;;1.80;;
61899;SDS011;47853;55.890;37.664;2023-04-23T11:44:34;2.72;;;1.50;;
61899;SDS011;47853;55.890;37.664;2023-04-23T11:47:01;9.13;;;2.20;;
61899;SDS011;47853;55.890;37.664;2023-04-23T11:49:26;7.73;;;1.40;;
61899;SDS011;47853;55.890;37.664;2023-04-23T11:51:52;2.30;;;1.30;;
61899;SDS011;47853;55.890;37.664;2023-04-23T11:54:17;3.30;;;1.27;;
61899;SDS011;47853;55.890;37.664;2023-04-23T11:56:43;2.90;;;1.80;;
61899;SDS011;47853;55.890;37.664;2023-04-23T11:59:08;7.88;;;1.70;;
61899;SDS011;47853;55.890;37.664;2023-04-23T12:04:15;5.30;;;1.33;;
61899;SDS011;47853;55.890;37.664;2023-04-23T12:06:41;4.78;;;1.67;;
61899;SDS011;47853;55.890;37.664;2023-04-23T12:09:07;6.75;;;2.03;;
61899;SDS011;47853;55.890;37.664;2023-04-23T12:11:33;6.38;;;1.52;;
61899;SDS011;47853;55.890;37.664;2023-04-23T12:13:58;4.38;;;1.67;;
61899;SDS011;47853;55.890;37.664;2023-04-23T12:16:43;2.87;;;1.53;;
61899;SDS011;47853;55.890;37.664;2023-04-23T12:19:09;3.95;;;1.50;;
61899;SDS011;47853;55.890;37.664;2023-04-23T12:21:34;14.15;;;2.10;;
61899;SDS011;47853;55.890;37.664;2023-04-23T12:23:59;2.80;;;1.50;;
61899;SDS011;47853;55.890;37.664;2023-04-23T12:26:27;5.05;;;1.60;;
61899;SDS011;47853;55.890;37.664;2023-04-23T12:28:52;5.47;;;1.53;;
61899;SDS011;47853;55.890;37.664;2023-04-23T12:31:27;3.45;;;1.55;;
61899;SDS011;47853;55.890;37.664;2023-04-23T12:33:55;4.57;;;1.60;;
61899;SDS011;47853;55.890;37.664;2023-04-23T12:36:20;8.00;;;1.67;;
61899;SDS011;47853;55.890;37.664;2023-04-23T12:38:49;6.35;;;1.95;;
61899;SDS011;47853;55.890;37.664;2023-04-23T12:41:14;4.07;;;1.73;;
61899;SDS011;47853;55.890;37.664;2023-04-23T12:43:40;6.73;;;2.37;;
61899;SDS011;47853;55.890;37.664;2023-04-23T12:46:05;8.00;;;2.30;;
61899;SDS011;47853;55.890;37.664;2023-04-23T12:48:30;2.37;;;1.77;;
61899;SDS011;47853;55.890;37.664;2023-04-23T12:50:55;5.23;;;1.80;;
61899;SDS011;47853;55.890;37.664;2023-04-23T12:53:20;3.50;;;1.67;;
61899;SDS011;47853;55.890;37.664;2023-04-23T12:55:45;3.50;;;1.50;;
61899;SDS011;47853;55.890;37.664;2023-04-23T13:01:01;4.63;;;1.73;;
61899;SDS011;47853;55.890;37.664;2023-04-23T13:03:26;3.00;;;1.87;;
61899;SDS011;47853;55.890;37.664;2023-04-23T13:05:51;8.20;;;2.13;;
61899;SDS011;47853;55.890;37.664;2023-04-23T13:08:16;8.33;;;2.03;;
61899;SDS011;47853;55.890;37.664;2023-04-23T13:10:41;6.07;;;1.87;;
61899;SDS011;47853;55.890;37.664;2023-04-23T13:13:06;4.60;;;2.00;;
61899;SDS011;47853;55.890;37.664;2023-04-23T13:15:32;3.30;;;2.00;;
61899;SDS011;47853;55.890;37.664;2023-04-23T13:17:57;4.00;;;1.87;;
61899;SDS011;47853;55.890;37.664;2023-04-23T13:20:22;5.30;;;1.97;;
61899;SDS011;47853;55.890;37.664;2023-04-23T13:22:47;18.63;;;2.20;;
61899;SDS011;47853;55.890;37.664;2023-04-23T13:25:12;4.73;;;2.17;;
61899;SDS011;47853;55.890;37.664;2023-04-23T13:27:37;2.90;;;1.70;;
61899;SDS011;47853;55.890;37.664;2023-04-23T13:30:03;6.97;;;3.00;;
61899;SDS011;47853;55.890;37.664;2023-04-23T13:32:28;3.95;;;1.92;;
61899;SDS011;47853;55.890;37.664;2023-04-23T13:34:53;4.10;;;1.97;;
61899;SDS011;47853;55.890;37.664;2023-04-23T13:37:18;4.20;;;1.77;;
61899;SDS011;47853;55.890;37.664;2023-04-23T13:39:43;5.00;;;2.20;;
61899;SDS011;47853;55.890;37.664;2023-04-23T13:42:09;5.23;;;2.10;;
61899;SDS011;47853;55.890;37.664;2023-04-23T13:44:34;3.17;;;2.00;;
61899;SDS011;47853;55.890;37.664;2023-04-23T13:46:59;4.10;;;2.00;;
61899;SDS011;47853;55.890;37.664;2023-04-23T13:49:24;3.10;;;2.03;;
61899;SDS011;47853;55.890;37.664;2023-04-23T13:51:50;4.07;;;1.80;;
61899;SDS011;47853;55.890;37.664;2023-04-23T13:54:15;2.90;;;1.63;;
61899;SDS011;47853;55.890;37.664;2023-04-23T13:56:41;5.57;;;2.03;;
61899;SDS011;47853;55.890;37.664;2023-04-23T13:59:06;3.13;;;1.83;;
61899;SDS011;47853;55.890;37.664;2023-04-23T14:01:31;9.47;;;1.70;;
61899;SDS011;47853;55.890;37.664;2023-04-23T14:03:56;5.23;;;1.90;;
61899;SDS011;47853;55.890;37.664;2023-04-23T14:06:21;4.43;;;2.03;;
61899;SDS011;47853;55.890;37.664;2023-04-23T14:08:47;4.47;;;1.88;;
61899;SDS011;47853;55.890;37.664;2023-04-23T14:11:12;4.07;;;2.10;;
61899;SDS011;47853;55.890;37.664;2023-04-23T14:13:37;5.43;;;1.77;;
61899;SDS011;47853;55.890;37.664;2023-04-23T14:16:02;27.07;;;22.77;;
61899;SDS011;47853;55.890;37.664;2023-04-23T14:18:27;4.93;;;1.93;;
61899;SDS011;47853;55.890;37.664;2023-04-23T14:20:53;7.27;;;2.27;;
61899;SDS011;47853;55.890;37.664;2023-04-23T14:25:46;9.57;;;2.00;;